<?xml version="1.0" encoding="UTF-8" standalone="no" ?>
<gpx xmlns="http://www.topografix.com/GPX/1/1" xmlns:xsi="http://www.w3.org/2001/XMLSchema-instance" xsi:schemaLocation="http://www.topografix.com/GPX/1/1 http://www.topografix.com/GPX/1/1/gpx.xsd" version="1.1" creator="VisuGPX - https://www.visugpx.com">
  <metadata>
    <name>LesCouchants-xxx: 20 AOU 2009 10:23</name>
  </metadata>
  <trk>
    <name><![CDATA[LesCouchants-xxx: 20 AOU 2009 10:23]]></name>
    <trkseg>
      <trkpt lat="42.07842" lon="8.75439">
        <ele>1405.58</ele>
        <time>2009-08-20T07:33:34Z</time>
      </trkpt>
      <trkpt lat="42.07832" lon="8.75451">
        <ele>1406.07</ele>
        <time>2009-08-20T07:33:39Z</time>
      </trkpt>
      <trkpt lat="42.07822" lon="8.75489">
        <ele>1407.51</ele>
        <time>2009-08-20T07:33:53Z</time>
      </trkpt>
      <trkpt lat="42.07819" lon="8.75502">
        <ele>1407.99</ele>
        <time>2009-08-20T07:33:58Z</time>
      </trkpt>
      <trkpt lat="42.07809" lon="8.75547">
        <ele>1409.91</ele>
        <time>2009-08-20T07:34:13Z</time>
      </trkpt>
      <trkpt lat="42.07797" lon="8.75571">
        <ele>1411.35</ele>
        <time>2009-08-20T07:34:24Z</time>
      </trkpt>
      <trkpt lat="42.07791" lon="8.75599">
        <ele>1412.79</ele>
        <time>2009-08-20T07:34:36Z</time>
      </trkpt>
      <trkpt lat="42.07766" lon="8.7564">
        <ele>1414.24</ele>
        <time>2009-08-20T07:34:47Z</time>
      </trkpt>
      <trkpt lat="42.07754" lon="8.7565">
        <ele>1414.24</ele>
        <time>2009-08-20T07:34:53Z</time>
      </trkpt>
      <trkpt lat="42.07744" lon="8.7567">
        <ele>1415.2</ele>
        <time>2009-08-20T07:34:59Z</time>
      </trkpt>
      <trkpt lat="42.0775" lon="8.75702">
        <ele>1416.64</ele>
        <time>2009-08-20T07:35:11Z</time>
      </trkpt>
      <trkpt lat="42.0773" lon="8.75741">
        <ele>1418.56</ele>
        <time>2009-08-20T07:35:23Z</time>
      </trkpt>
      <trkpt lat="42.07721" lon="8.75743">
        <ele>1419.04</ele>
        <time>2009-08-20T07:35:25Z</time>
      </trkpt>
      <trkpt lat="42.07696" lon="8.75745">
        <ele>1420</ele>
        <time>2009-08-20T07:35:32Z</time>
      </trkpt>
      <trkpt lat="42.07657" lon="8.75779">
        <ele>1421.45</ele>
        <time>2009-08-20T07:35:45Z</time>
      </trkpt>
      <trkpt lat="42.07628" lon="8.75791">
        <ele>1422.89</ele>
        <time>2009-08-20T07:35:53Z</time>
      </trkpt>
      <trkpt lat="42.07615" lon="8.75784">
        <ele>1423.37</ele>
        <time>2009-08-20T07:35:57Z</time>
      </trkpt>
      <trkpt lat="42.07589" lon="8.75765">
        <ele>1424.81</ele>
        <time>2009-08-20T07:36:08Z</time>
      </trkpt>
      <trkpt lat="42.07551" lon="8.75741">
        <ele>1425.29</ele>
        <time>2009-08-20T07:36:23Z</time>
      </trkpt>
      <trkpt lat="42.07514" lon="8.75745">
        <ele>1426.73</ele>
        <time>2009-08-20T07:36:34Z</time>
      </trkpt>
      <trkpt lat="42.07475" lon="8.75752">
        <ele>1428.18</ele>
        <time>2009-08-20T07:36:47Z</time>
      </trkpt>
      <trkpt lat="42.07454" lon="8.75735">
        <ele>1429.14</ele>
        <time>2009-08-20T07:36:56Z</time>
      </trkpt>
      <trkpt lat="42.07423" lon="8.75718">
        <ele>1430.58</ele>
        <time>2009-08-20T07:37:07Z</time>
      </trkpt>
      <trkpt lat="42.07393" lon="8.75697">
        <ele>1432.02</ele>
        <time>2009-08-20T07:37:19Z</time>
      </trkpt>
      <trkpt lat="42.07385" lon="8.7569">
        <ele>1432.02</ele>
        <time>2009-08-20T07:37:23Z</time>
      </trkpt>
      <trkpt lat="42.07362" lon="8.7568">
        <ele>1433.46</ele>
        <time>2009-08-20T07:37:35Z</time>
      </trkpt>
      <trkpt lat="42.07333" lon="8.75719">
        <ele>1434.42</ele>
        <time>2009-08-20T07:37:44Z</time>
      </trkpt>
      <trkpt lat="42.07318" lon="8.75719">
        <ele>1435.39</ele>
        <time>2009-08-20T07:37:51Z</time>
      </trkpt>
      <trkpt lat="42.07304" lon="8.75722">
        <ele>1435.87</ele>
        <time>2009-08-20T07:37:58Z</time>
      </trkpt>
      <trkpt lat="42.07279" lon="8.75751">
        <ele>1437.31</ele>
        <time>2009-08-20T07:38:10Z</time>
      </trkpt>
      <trkpt lat="42.07239" lon="8.75763">
        <ele>1438.75</ele>
        <time>2009-08-20T07:38:22Z</time>
      </trkpt>
      <trkpt lat="42.07202" lon="8.75776">
        <ele>1440.19</ele>
        <time>2009-08-20T07:38:35Z</time>
      </trkpt>
      <trkpt lat="42.07174" lon="8.75776">
        <ele>1441.63</ele>
        <time>2009-08-20T07:38:46Z</time>
      </trkpt>
      <trkpt lat="42.07171" lon="8.75754">
        <ele>1443.56</ele>
        <time>2009-08-20T07:38:56Z</time>
      </trkpt>
      <trkpt lat="42.07171" lon="8.75751">
        <ele>1443.56</ele>
        <time>2009-08-20T07:38:59Z</time>
      </trkpt>
      <trkpt lat="42.07183" lon="8.75726">
        <ele>1444.52</ele>
        <time>2009-08-20T07:39:10Z</time>
      </trkpt>
      <trkpt lat="42.07185" lon="8.75703">
        <ele>1445.48</ele>
        <time>2009-08-20T07:39:20Z</time>
      </trkpt>
      <trkpt lat="42.07187" lon="8.75701">
        <ele>1445.48</ele>
        <time>2009-08-20T07:39:21Z</time>
      </trkpt>
      <trkpt lat="42.07148" lon="8.75676">
        <ele>1446.44</ele>
        <time>2009-08-20T07:39:30Z</time>
      </trkpt>
      <trkpt lat="42.07137" lon="8.75675">
        <ele>1446.92</ele>
        <time>2009-08-20T07:39:33Z</time>
      </trkpt>
      <trkpt lat="42.07108" lon="8.75678">
        <ele>1448.36</ele>
        <time>2009-08-20T07:39:46Z</time>
      </trkpt>
      <trkpt lat="42.07102" lon="8.75677">
        <ele>1447.88</ele>
        <time>2009-08-20T07:39:48Z</time>
      </trkpt>
      <trkpt lat="42.0708" lon="8.75655">
        <ele>1449.81</ele>
        <time>2009-08-20T07:39:59Z</time>
      </trkpt>
      <trkpt lat="42.07059" lon="8.75624">
        <ele>1451.73</ele>
        <time>2009-08-20T07:40:11Z</time>
      </trkpt>
      <trkpt lat="42.07053" lon="8.75613">
        <ele>1452.69</ele>
        <time>2009-08-20T07:40:16Z</time>
      </trkpt>
      <trkpt lat="42.07049" lon="8.75611">
        <ele>1452.69</ele>
        <time>2009-08-20T07:40:18Z</time>
      </trkpt>
      <trkpt lat="42.07036" lon="8.75612">
        <ele>1453.65</ele>
        <time>2009-08-20T07:40:23Z</time>
      </trkpt>
      <trkpt lat="42.07007" lon="8.75636">
        <ele>1455.09</ele>
        <time>2009-08-20T07:40:37Z</time>
      </trkpt>
      <trkpt lat="42.0699" lon="8.75654">
        <ele>1456.53</ele>
        <time>2009-08-20T07:40:46Z</time>
      </trkpt>
      <trkpt lat="42.06966" lon="8.75634">
        <ele>1457.98</ele>
        <time>2009-08-20T07:40:57Z</time>
      </trkpt>
      <trkpt lat="42.06947" lon="8.75615">
        <ele>1458.94</ele>
        <time>2009-08-20T07:41:07Z</time>
      </trkpt>
      <trkpt lat="42.06942" lon="8.75606">
        <ele>1460.38</ele>
        <time>2009-08-20T07:41:14Z</time>
      </trkpt>
      <trkpt lat="42.06906" lon="8.75605">
        <ele>1461.82</ele>
        <time>2009-08-20T07:41:25Z</time>
      </trkpt>
      <trkpt lat="42.06887" lon="8.75634">
        <ele>1462.78</ele>
        <time>2009-08-20T07:41:36Z</time>
      </trkpt>
      <trkpt lat="42.06872" lon="8.75672">
        <ele>1464.23</ele>
        <time>2009-08-20T07:41:50Z</time>
      </trkpt>
      <trkpt lat="42.0687" lon="8.75674">
        <ele>1464.71</ele>
        <time>2009-08-20T07:41:51Z</time>
      </trkpt>
      <trkpt lat="42.06855" lon="8.75672">
        <ele>1466.15</ele>
        <time>2009-08-20T07:41:58Z</time>
      </trkpt>
      <trkpt lat="42.06831" lon="8.75693">
        <ele>1467.11</ele>
        <time>2009-08-20T07:42:11Z</time>
      </trkpt>
      <trkpt lat="42.0683" lon="8.75722">
        <ele>1469.03</ele>
        <time>2009-08-20T07:42:23Z</time>
      </trkpt>
      <trkpt lat="42.06837" lon="8.75756">
        <ele>1469.99</ele>
        <time>2009-08-20T07:42:36Z</time>
      </trkpt>
      <trkpt lat="42.0682" lon="8.75788">
        <ele>1471.92</ele>
        <time>2009-08-20T07:42:49Z</time>
      </trkpt>
      <trkpt lat="42.06812" lon="8.75798">
        <ele>1472.4</ele>
        <time>2009-08-20T07:42:52Z</time>
      </trkpt>
      <trkpt lat="42.06793" lon="8.75839">
        <ele>1473.84</ele>
        <time>2009-08-20T07:43:05Z</time>
      </trkpt>
      <trkpt lat="42.06798" lon="8.75873">
        <ele>1474.8</ele>
        <time>2009-08-20T07:43:18Z</time>
      </trkpt>
      <trkpt lat="42.06812" lon="8.75909">
        <ele>1477.2</ele>
        <time>2009-08-20T07:43:32Z</time>
      </trkpt>
      <trkpt lat="42.06826" lon="8.75946">
        <ele>1478.65</ele>
        <time>2009-08-20T07:43:48Z</time>
      </trkpt>
      <trkpt lat="42.07054" lon="8.76164">
        <ele>1480.09</ele>
        <time>2009-08-20T07:44:03Z</time>
      </trkpt>
      <trkpt lat="42.07161" lon="8.76202">
        <ele>1481.05</ele>
        <time>2009-08-20T07:44:14Z</time>
      </trkpt>
      <trkpt lat="42.07229" lon="8.76199">
        <ele>1482.01</ele>
        <time>2009-08-20T07:44:27Z</time>
      </trkpt>
      <trkpt lat="42.0724" lon="8.76193">
        <ele>1483.45</ele>
        <time>2009-08-20T07:44:40Z</time>
      </trkpt>
      <trkpt lat="42.07141" lon="8.76042">
        <ele>1340.22</ele>
        <time>2009-08-20T07:45:54Z</time>
      </trkpt>
      <trkpt lat="42.07169" lon="8.76083">
        <ele>1339.73</ele>
        <time>2009-08-20T07:46:53Z</time>
      </trkpt>
      <trkpt lat="42.07161" lon="8.76079">
        <ele>1339.25</ele>
        <time>2009-08-20T07:47:16Z</time>
      </trkpt>
      <trkpt lat="42.07148" lon="8.76082">
        <ele>1338.77</ele>
        <time>2009-08-20T07:47:29Z</time>
      </trkpt>
      <trkpt lat="42.07117" lon="8.76082">
        <ele>1336.85</ele>
        <time>2009-08-20T07:47:41Z</time>
      </trkpt>
      <trkpt lat="42.07091" lon="8.76065">
        <ele>1336.37</ele>
        <time>2009-08-20T07:47:51Z</time>
      </trkpt>
      <trkpt lat="42.07067" lon="8.76027">
        <ele>1334.45</ele>
        <time>2009-08-20T07:48:03Z</time>
      </trkpt>
      <trkpt lat="42.07046" lon="8.75974">
        <ele>1332.04</ele>
        <time>2009-08-20T07:48:17Z</time>
      </trkpt>
      <trkpt lat="42.07039" lon="8.75933">
        <ele>1330.6</ele>
        <time>2009-08-20T07:48:29Z</time>
      </trkpt>
      <trkpt lat="42.07041" lon="8.75923">
        <ele>1329.64</ele>
        <time>2009-08-20T07:48:32Z</time>
      </trkpt>
      <trkpt lat="42.07065" lon="8.75892">
        <ele>1327.72</ele>
        <time>2009-08-20T07:48:44Z</time>
      </trkpt>
      <trkpt lat="42.07083" lon="8.75864">
        <ele>1326.28</ele>
        <time>2009-08-20T07:48:53Z</time>
      </trkpt>
      <trkpt lat="42.07073" lon="8.75817">
        <ele>1324.35</ele>
        <time>2009-08-20T07:49:07Z</time>
      </trkpt>
      <trkpt lat="42.07083" lon="8.75783">
        <ele>1322.91</ele>
        <time>2009-08-20T07:49:18Z</time>
      </trkpt>
      <trkpt lat="42.07104" lon="8.75777">
        <ele>1321.95</ele>
        <time>2009-08-20T07:49:25Z</time>
      </trkpt>
      <trkpt lat="42.07117" lon="8.75762">
        <ele>1320.99</ele>
        <time>2009-08-20T07:49:30Z</time>
      </trkpt>
      <trkpt lat="42.07132" lon="8.75714">
        <ele>1318.59</ele>
        <time>2009-08-20T07:49:42Z</time>
      </trkpt>
      <trkpt lat="42.07161" lon="8.75699">
        <ele>1316.66</ele>
        <time>2009-08-20T07:49:54Z</time>
      </trkpt>
      <trkpt lat="42.07188" lon="8.7572">
        <ele>1314.74</ele>
        <time>2009-08-20T07:50:07Z</time>
      </trkpt>
      <trkpt lat="42.07215" lon="8.75743">
        <ele>1313.3</ele>
        <time>2009-08-20T07:50:20Z</time>
      </trkpt>
      <trkpt lat="42.07235" lon="8.75725">
        <ele>1311.38</ele>
        <time>2009-08-20T07:50:29Z</time>
      </trkpt>
      <trkpt lat="42.07264" lon="8.75705">
        <ele>1308.97</ele>
        <time>2009-08-20T07:50:42Z</time>
      </trkpt>
      <trkpt lat="42.07285" lon="8.75732">
        <ele>1307.05</ele>
        <time>2009-08-20T07:50:54Z</time>
      </trkpt>
      <trkpt lat="42.0729" lon="8.75739">
        <ele>1306.57</ele>
        <time>2009-08-20T07:50:57Z</time>
      </trkpt>
      <trkpt lat="42.0732" lon="8.75765">
        <ele>1304.65</ele>
        <time>2009-08-20T07:51:10Z</time>
      </trkpt>
      <trkpt lat="42.07363" lon="8.7576">
        <ele>1301.76</ele>
        <time>2009-08-20T07:51:24Z</time>
      </trkpt>
      <trkpt lat="42.07372" lon="8.75764">
        <ele>1301.28</ele>
        <time>2009-08-20T07:51:27Z</time>
      </trkpt>
      <trkpt lat="42.07381" lon="8.758">
        <ele>1299.84</ele>
        <time>2009-08-20T07:51:38Z</time>
      </trkpt>
      <trkpt lat="42.07376" lon="8.75814">
        <ele>1299.84</ele>
        <time>2009-08-20T07:51:45Z</time>
      </trkpt>
      <trkpt lat="42.07371" lon="8.75844">
        <ele>1298.88</ele>
        <time>2009-08-20T07:52:01Z</time>
      </trkpt>
      <trkpt lat="42.0737" lon="8.75852">
        <ele>1298.4</ele>
        <time>2009-08-20T07:52:06Z</time>
      </trkpt>
      <trkpt lat="42.07377" lon="8.75866">
        <ele>1297.92</ele>
        <time>2009-08-20T07:52:18Z</time>
      </trkpt>
      <trkpt lat="42.07386" lon="8.7587">
        <ele>1297.44</ele>
        <time>2009-08-20T07:52:27Z</time>
      </trkpt>
      <trkpt lat="42.07405" lon="8.7586">
        <ele>1296.48</ele>
        <time>2009-08-20T07:52:43Z</time>
      </trkpt>
      <trkpt lat="42.07409" lon="8.75856">
        <ele>1296.48</ele>
        <time>2009-08-20T07:52:47Z</time>
      </trkpt>
      <trkpt lat="42.0742" lon="8.75847">
        <ele>1295.51</ele>
        <time>2009-08-20T07:52:58Z</time>
      </trkpt>
      <trkpt lat="42.0744" lon="8.7584">
        <ele>1294.55</ele>
        <time>2009-08-20T07:53:15Z</time>
      </trkpt>
      <trkpt lat="42.07458" lon="8.75835">
        <ele>1293.59</ele>
        <time>2009-08-20T07:53:28Z</time>
      </trkpt>
      <trkpt lat="42.0746" lon="8.75834">
        <ele>1293.59</ele>
        <time>2009-08-20T07:53:30Z</time>
      </trkpt>
      <trkpt lat="42.07473" lon="8.75811">
        <ele>1292.63</ele>
        <time>2009-08-20T07:53:44Z</time>
      </trkpt>
      <trkpt lat="42.0748" lon="8.75805">
        <ele>1291.67</ele>
        <time>2009-08-20T07:53:48Z</time>
      </trkpt>
      <trkpt lat="42.075" lon="8.75795">
        <ele>1291.19</ele>
        <time>2009-08-20T07:54:02Z</time>
      </trkpt>
      <trkpt lat="42.07505" lon="8.75791">
        <ele>1291.19</ele>
        <time>2009-08-20T07:54:10Z</time>
      </trkpt>
      <trkpt lat="42.07526" lon="8.75762">
        <ele>1289.75</ele>
        <time>2009-08-20T07:54:33Z</time>
      </trkpt>
      <trkpt lat="42.07552" lon="8.75764">
        <ele>1288.78</ele>
        <time>2009-08-20T07:54:46Z</time>
      </trkpt>
      <trkpt lat="42.0759" lon="8.75789">
        <ele>1286.86</ele>
        <time>2009-08-20T07:55:01Z</time>
      </trkpt>
      <trkpt lat="42.07616" lon="8.75804">
        <ele>1284.94</ele>
        <time>2009-08-20T07:55:14Z</time>
      </trkpt>
      <trkpt lat="42.07648" lon="8.75787">
        <ele>1283.02</ele>
        <time>2009-08-20T07:55:26Z</time>
      </trkpt>
      <trkpt lat="42.07675" lon="8.75789">
        <ele>1281.57</ele>
        <time>2009-08-20T07:55:38Z</time>
      </trkpt>
      <trkpt lat="42.07687" lon="8.75805">
        <ele>1280.61</ele>
        <time>2009-08-20T07:55:51Z</time>
      </trkpt>
      <trkpt lat="42.077" lon="8.75821">
        <ele>1279.65</ele>
        <time>2009-08-20T07:56:04Z</time>
      </trkpt>
      <trkpt lat="42.07709" lon="8.75825">
        <ele>1279.17</ele>
        <time>2009-08-20T07:56:12Z</time>
      </trkpt>
      <trkpt lat="42.07716" lon="8.75821">
        <ele>1278.69</ele>
        <time>2009-08-20T07:56:18Z</time>
      </trkpt>
      <trkpt lat="42.07721" lon="8.75818">
        <ele>1278.69</ele>
        <time>2009-08-20T07:56:22Z</time>
      </trkpt>
      <trkpt lat="42.07728" lon="8.7581">
        <ele>1278.21</ele>
        <time>2009-08-20T07:56:29Z</time>
      </trkpt>
      <trkpt lat="42.07733" lon="8.75795">
        <ele>1277.25</ele>
        <time>2009-08-20T07:56:38Z</time>
      </trkpt>
      <trkpt lat="42.07736" lon="8.75791">
        <ele>1276.77</ele>
        <time>2009-08-20T07:56:41Z</time>
      </trkpt>
      <trkpt lat="42.07766" lon="8.75755">
        <ele>1275.33</ele>
        <time>2009-08-20T07:56:57Z</time>
      </trkpt>
      <trkpt lat="42.07772" lon="8.75722">
        <ele>1273.4</ele>
        <time>2009-08-20T07:57:07Z</time>
      </trkpt>
      <trkpt lat="42.07758" lon="8.75688">
        <ele>1271.48</ele>
        <time>2009-08-20T07:57:19Z</time>
      </trkpt>
      <trkpt lat="42.07767" lon="8.75645">
        <ele>1270.52</ele>
        <time>2009-08-20T07:57:30Z</time>
      </trkpt>
      <trkpt lat="42.07787" lon="8.75608">
        <ele>1269.08</ele>
        <time>2009-08-20T07:57:42Z</time>
      </trkpt>
      <trkpt lat="42.07797" lon="8.75574">
        <ele>1267.16</ele>
        <time>2009-08-20T07:57:53Z</time>
      </trkpt>
      <trkpt lat="42.07813" lon="8.75523">
        <ele>1265.23</ele>
        <time>2009-08-20T07:58:07Z</time>
      </trkpt>
      <trkpt lat="42.07827" lon="8.75478">
        <ele>1263.79</ele>
        <time>2009-08-20T07:58:20Z</time>
      </trkpt>
      <trkpt lat="42.07841" lon="8.75441">
        <ele>1261.87</ele>
        <time>2009-08-20T07:58:32Z</time>
      </trkpt>
      <trkpt lat="42.07869" lon="8.75432">
        <ele>1260.43</ele>
        <time>2009-08-20T07:58:43Z</time>
      </trkpt>
      <trkpt lat="42.07887" lon="8.75462">
        <ele>1258.98</ele>
        <time>2009-08-20T07:58:54Z</time>
      </trkpt>
      <trkpt lat="42.079" lon="8.7551">
        <ele>1257.54</ele>
        <time>2009-08-20T07:59:07Z</time>
      </trkpt>
      <trkpt lat="42.07916" lon="8.75541">
        <ele>1256.1</ele>
        <time>2009-08-20T07:59:18Z</time>
      </trkpt>
      <trkpt lat="42.07938" lon="8.75561">
        <ele>1254.66</ele>
        <time>2009-08-20T07:59:30Z</time>
      </trkpt>
      <trkpt lat="42.07959" lon="8.75539">
        <ele>1252.74</ele>
        <time>2009-08-20T07:59:41Z</time>
      </trkpt>
      <trkpt lat="42.07977" lon="8.7551">
        <ele>1251.29</ele>
        <time>2009-08-20T07:59:53Z</time>
      </trkpt>
      <trkpt lat="42.08005" lon="8.75504">
        <ele>1249.85</ele>
        <time>2009-08-20T08:00:05Z</time>
      </trkpt>
      <trkpt lat="42.08029" lon="8.75475">
        <ele>1248.41</ele>
        <time>2009-08-20T08:00:17Z</time>
      </trkpt>
      <trkpt lat="42.08043" lon="8.75445">
        <ele>1246.97</ele>
        <time>2009-08-20T08:00:29Z</time>
      </trkpt>
      <trkpt lat="42.08044" lon="8.75442">
        <ele>1246.49</ele>
        <time>2009-08-20T08:00:30Z</time>
      </trkpt>
      <trkpt lat="42.08049" lon="8.7543">
        <ele>1246.49</ele>
        <time>2009-08-20T08:00:34Z</time>
      </trkpt>
      <trkpt lat="42.08063" lon="8.75395">
        <ele>1244.56</ele>
        <time>2009-08-20T08:00:47Z</time>
      </trkpt>
      <trkpt lat="42.0807" lon="8.75348">
        <ele>1243.12</ele>
        <time>2009-08-20T08:00:59Z</time>
      </trkpt>
      <trkpt lat="42.08069" lon="8.75333">
        <ele>1243.12</ele>
        <time>2009-08-20T08:01:03Z</time>
      </trkpt>
      <trkpt lat="42.08068" lon="8.75318">
        <ele>1242.16</ele>
        <time>2009-08-20T08:01:10Z</time>
      </trkpt>
      <trkpt lat="42.08067" lon="8.75307">
        <ele>1241.68</ele>
        <time>2009-08-20T08:01:17Z</time>
      </trkpt>
      <trkpt lat="42.08061" lon="8.7526">
        <ele>1240.24</ele>
        <time>2009-08-20T08:01:31Z</time>
      </trkpt>
      <trkpt lat="42.08052" lon="8.75217">
        <ele>1238.8</ele>
        <time>2009-08-20T08:01:42Z</time>
      </trkpt>
      <trkpt lat="42.08049" lon="8.75162">
        <ele>1236.87</ele>
        <time>2009-08-20T08:01:56Z</time>
      </trkpt>
      <trkpt lat="42.08045" lon="8.75108">
        <ele>1234.47</ele>
        <time>2009-08-20T08:02:09Z</time>
      </trkpt>
      <trkpt lat="42.0804" lon="8.75082">
        <ele>1233.99</ele>
        <time>2009-08-20T08:02:19Z</time>
      </trkpt>
      <trkpt lat="42.0803" lon="8.75049">
        <ele>1232.07</ele>
        <time>2009-08-20T08:02:30Z</time>
      </trkpt>
      <trkpt lat="42.08016" lon="8.75002">
        <ele>1231.11</ele>
        <time>2009-08-20T08:02:43Z</time>
      </trkpt>
      <trkpt lat="42.08014" lon="8.74997">
        <ele>1231.11</ele>
        <time>2009-08-20T08:02:45Z</time>
      </trkpt>
      <trkpt lat="42.08017" lon="8.74955">
        <ele>1230.14</ele>
        <time>2009-08-20T08:02:56Z</time>
      </trkpt>
      <trkpt lat="42.08043" lon="8.74947">
        <ele>1229.18</ele>
        <time>2009-08-20T08:03:07Z</time>
      </trkpt>
      <trkpt lat="42.08063" lon="8.74918">
        <ele>1228.22</ele>
        <time>2009-08-20T08:03:19Z</time>
      </trkpt>
      <trkpt lat="42.08061" lon="8.74878">
        <ele>1226.78</ele>
        <time>2009-08-20T08:03:33Z</time>
      </trkpt>
      <trkpt lat="42.08046" lon="8.74834">
        <ele>1225.82</ele>
        <time>2009-08-20T08:03:47Z</time>
      </trkpt>
      <trkpt lat="42.0802" lon="8.74803">
        <ele>1224.38</ele>
        <time>2009-08-20T08:04:00Z</time>
      </trkpt>
      <trkpt lat="42.07983" lon="8.74794">
        <ele>1223.42</ele>
        <time>2009-08-20T08:04:15Z</time>
      </trkpt>
      <trkpt lat="42.0795" lon="8.7477">
        <ele>1221.49</ele>
        <time>2009-08-20T08:04:29Z</time>
      </trkpt>
      <trkpt lat="42.07938" lon="8.74759">
        <ele>1220.53</ele>
        <time>2009-08-20T08:04:35Z</time>
      </trkpt>
      <trkpt lat="42.07951" lon="8.74755">
        <ele>1218.13</ele>
        <time>2009-08-20T08:04:43Z</time>
      </trkpt>
      <trkpt lat="42.07971" lon="8.74767">
        <ele>1214.76</ele>
        <time>2009-08-20T08:04:51Z</time>
      </trkpt>
      <trkpt lat="42.08005" lon="8.74768">
        <ele>1211.88</ele>
        <time>2009-08-20T08:05:03Z</time>
      </trkpt>
      <trkpt lat="42.08042" lon="8.74767">
        <ele>1209.96</ele>
        <time>2009-08-20T08:05:16Z</time>
      </trkpt>
      <trkpt lat="42.08075" lon="8.74796">
        <ele>1209</ele>
        <time>2009-08-20T08:05:29Z</time>
      </trkpt>
      <trkpt lat="42.08104" lon="8.74825">
        <ele>1209.48</ele>
        <time>2009-08-20T08:05:42Z</time>
      </trkpt>
      <trkpt lat="42.0812" lon="8.74856">
        <ele>1207.07</ele>
        <time>2009-08-20T08:05:53Z</time>
      </trkpt>
      <trkpt lat="42.08129" lon="8.74887">
        <ele>1205.63</ele>
        <time>2009-08-20T08:06:04Z</time>
      </trkpt>
      <trkpt lat="42.08129" lon="8.74891">
        <ele>1205.63</ele>
        <time>2009-08-20T08:06:06Z</time>
      </trkpt>
      <trkpt lat="42.08132" lon="8.74912">
        <ele>1204.67</ele>
        <time>2009-08-20T08:06:18Z</time>
      </trkpt>
      <trkpt lat="42.08131" lon="8.74923">
        <ele>1204.19</ele>
        <time>2009-08-20T08:06:37Z</time>
      </trkpt>
      <trkpt lat="42.0813" lon="8.74926">
        <ele>1203.71</ele>
        <time>2009-08-20T08:06:39Z</time>
      </trkpt>
      <trkpt lat="42.08126" lon="8.74947">
        <ele>1203.23</ele>
        <time>2009-08-20T08:06:53Z</time>
      </trkpt>
      <trkpt lat="42.0813" lon="8.7496">
        <ele>1201.79</ele>
        <time>2009-08-20T08:07:08Z</time>
      </trkpt>
      <trkpt lat="42.08144" lon="8.74946">
        <ele>1199.86</ele>
        <time>2009-08-20T08:07:19Z</time>
      </trkpt>
      <trkpt lat="42.08149" lon="8.74943">
        <ele>1199.86</ele>
        <time>2009-08-20T08:07:22Z</time>
      </trkpt>
    </trkseg>
  </trk>
</gpx>